Terminal Aerodrome Forecast
Issued by NWS Chicago, IL

Home | Current Version | Previous Version | Graphics & Text | Print | Product List | Glossary On
Versions: 1 2 3 4 5 6 7 8 9 10 11 12 13 14 15 16 17 18 19 20 21 22 23 24 25
629
FTUS43 KLOT 041739
TAFRFD
TAF
KRFD 041739Z 0418/0518 24008KT P6SM SCT150
     FM042100 20008KT P6SM BKN090
     FM050400 27007KT P6SM BKN090
     FM050800 32007KT P6SM BKN015
     FM051600 32007KT P6SM SCT015=

USA.gov is the U.S. government's official web portal to all federal, state and local government web resources and services.